createdAt,value
2022-11-03T00:02:17.416Z,98247.19
2022-11-03T00:04:46.436Z,98250.63
2022-11-03T00:07:22.655Z,98249.78
2022-11-03T00:09:51.574Z,98253.25
2022-11-03T00:12:21.395Z,98248.94
2022-11-03T00:14:50.344Z,98242.03
2022-11-03T00:17:19.522Z,98253.28
2022-11-03T00:22:59.476Z,98261.94
2022-11-03T00:25:28.554Z,98261.94
2022-11-03T00:28:00.562Z,98263.69
2022-11-03T00:30:29.424Z,98258.50
2022-11-03T00:33:00.227Z,98252.41
2022-11-03T00:35:29.209Z,98255.84
2022-11-03T00:37:59.915Z,98257.59
2022-11-03T00:40:29.133Z,98257.56
2022-11-03T00:42:58.583Z,98250.66
2022-11-03T00:45:27.942Z,98252.38
2022-11-03T00:48:15.714Z,98247.19
2022-11-03T00:50:44.750Z,98244.59
2022-11-03T00:53:16.297Z,98242.84
2022-11-03T00:55:51.044Z,98239.41
2022-11-03T00:58:20.221Z,98238.53
2022-11-03T01:00:49.381Z,98239.41
2022-11-03T01:03:18.513Z,98240.25
2022-11-03T01:06:05.131Z,98235.94
2022-11-03T01:08:36.094Z,98240.25
2022-11-03T01:11:27.307Z,98240.31
2022-11-03T01:13:56.894Z,98235.94
2022-11-03T01:16:26.106Z,98239.38
2022-11-03T01:18:55.450Z,98237.66
2022-11-03T01:21:25.043Z,98233.31
2022-11-03T01:25:09.077Z,98231.63
2022-11-03T01:27:41.427Z,98236.81
2022-11-03T01:30:11.217Z,98224.66
2022-11-03T01:32:40.429Z,98224.63
2022-11-03T01:35:10.298Z,98221.16
2022-11-03T01:37:39.341Z,98217.69
2022-11-03T01:40:10.657Z,98212.50
2022-11-03T01:42:41.110Z,98213.34
2022-11-03T01:45:10.972Z,98213.34
2022-11-03T01:47:40.280Z,98209.88
2022-11-03T01:50:11.751Z,98215.06
2022-11-03T01:52:43.830Z,98215.94
2022-11-03T01:55:15.970Z,98211.63
2022-11-03T01:57:50.526Z,98210.75
2022-11-03T02:00:19.613Z,98203.81
2022-11-03T02:02:52.342Z,98205.56
2022-11-03T02:05:23.640Z,98199.47
2022-11-03T02:07:56.228Z,98191.66
2022-11-03T02:10:26.309Z,98195.16
2022-11-03T02:12:56.913Z,98192.63
2022-11-03T02:15:26.202Z,98190.00
2022-11-03T02:17:56.503Z,98192.63
2022-11-03T02:20:26.971Z,98189.19
2022-11-03T02:23:15.166Z,98180.50
2022-11-03T02:25:47.296Z,98186.56
2022-11-03T02:28:18.852Z,98180.53
2022-11-03T02:30:52.156Z,98183.09
2022-11-03T02:33:30.246Z,98179.69
2022-11-03T02:36:01.196Z,98179.66
2022-11-03T02:38:30.895Z,98174.47
2022-11-03T02:41:02.750Z,98184.03
2022-11-03T02:43:31.803Z,98181.44
2022-11-03T02:46:00.613Z,98180.53
2022-11-03T02:48:29.754Z,98177.91
2022-11-03T02:50:58.696Z,98187.44
2022-11-03T02:53:29.016Z,98186.63
2022-11-03T02:56:04.451Z,98188.34
2022-11-03T02:58:39.078Z,98194.44
2022-11-03T03:01:15.229Z,98191.84
2022-11-03T03:03:48.314Z,98198.78
2022-11-03T03:06:20.607Z,98195.34
2022-11-03T03:08:52.576Z,98194.47
2022-11-03T03:11:38.025Z,98187.59
2022-11-03T03:14:12.423Z,98189.34
2022-11-03T03:16:47.908Z,98188.47
2022-11-03T03:19:24.782Z,98190.19
2022-11-03T03:21:55.705Z,98184.16
2022-11-03T03:24:30.458Z,98181.56
2022-11-03T03:27:02.417Z,98182.44
2022-11-03T03:29:34.806Z,98182.41
2022-11-03T03:32:06.317Z,98186.75
2022-11-03T03:34:36.435Z,98179.84
2022-11-03T03:37:06.562Z,98183.31
2022-11-03T03:39:37.740Z,98185.03
2022-11-03T03:42:08.992Z,98181.56
2022-11-03T03:44:38.087Z,98179.84
2022-11-03T03:47:15.914Z,98185.00
2022-11-03T03:49:44.789Z,98182.41
2022-11-03T03:52:14.131Z,98176.38
2022-11-03T03:54:42.644Z,98176.38
2022-11-03T03:57:15.828Z,98182.44
2022-11-03T03:59:44.300Z,98173.81
2022-11-03T04:02:13.892Z,98175.53
2022-11-03T04:04:42.605Z,98174.66
2022-11-03T04:07:31.026Z,98172.06
2022-11-03T04:09:59.848Z,98178.97
2022-11-03T04:12:47.372Z,98182.44
2022-11-03T04:15:33.035Z,98175.53
2022-11-03T04:18:18.657Z,98164.28
2022-11-03T04:21:04.415Z,98166.88
2022-11-03T04:23:32.809Z,98159.09
2022-11-03T04:26:02.576Z,98159.94
2022-11-03T04:28:32.511Z,98155.66
2022-11-03T04:31:01.040Z,98155.63
2022-11-03T04:33:30.719Z,98153.03
2022-11-03T04:36:00.212Z,98152.19
2022-11-03T04:38:29.610Z,98147.00
2022-11-03T04:40:59.850Z,98155.66
2022-11-03T04:43:34.692Z,98153.03
2022-11-03T04:46:03.524Z,98152.19
2022-11-03T04:48:32.402Z,98153.06
2022-11-03T04:51:02.689Z,98148.72
2022-11-03T04:53:34.525Z,98146.13
2022-11-03T04:56:07.418Z,98149.59
2022-11-03T04:58:38.020Z,98148.72
2022-11-03T05:01:12.041Z,98141.81
2022-11-03T05:03:42.425Z,98141.81
2022-11-03T05:06:13.991Z,98140.94
2022-11-03T05:08:45.075Z,98130.59
2022-11-03T05:11:21.791Z,98134.03
2022-11-03T05:13:52.498Z,98129.72
2022-11-03T05:16:21.963Z,98122.81
2022-11-03T05:18:51.522Z,98121.94
2022-11-03T05:21:21.889Z,98118.50
2022-11-03T05:23:53.674Z,98117.63
2022-11-03T05:26:26.882Z,98126.25
2022-11-03T05:28:59.986Z,98127.13
2022-11-03T05:31:31.571Z,98126.28
2022-11-03T05:34:02.878Z,98121.94
2022-11-03T05:36:33.560Z,98120.19
2022-11-03T05:39:26.909Z,98119.34
2022-11-03T05:41:56.301Z,98118.47
2022-11-03T05:44:31.389Z,98117.63
2022-11-03T05:47:03.150Z,98122.81
2022-11-03T05:49:41.042Z,98122.81
2022-11-03T05:56:16.010Z,98121.97
2022-11-03T05:58:49.298Z,98121.09
2022-11-03T06:01:26.026Z,98136.63
2022-11-03T06:03:56.660Z,98139.16
2022-11-03T06:06:32.227Z,98139.22
2022-11-03T06:09:04.422Z,98145.22
2022-11-03T06:11:39.211Z,98137.44
2022-11-03T06:14:18.646Z,98136.59
2022-11-03T06:16:53.816Z,98135.75
2022-11-03T06:19:25.169Z,98139.22
2022-11-03T06:21:56.115Z,98147.84
2022-11-03T06:24:31.324Z,98141.81
2022-11-03T06:27:00.406Z,98152.19
2022-11-03T06:29:33.000Z,98142.69
2022-11-03T06:32:03.854Z,98148.72
2022-11-03T06:34:39.590Z,98153.91
2022-11-03T06:37:20.122Z,98154.78
2022-11-03T06:39:49.850Z,98155.63
2022-11-03T06:42:22.690Z,98155.66
2022-11-03T06:44:54.603Z,98157.38
2022-11-03T06:47:26.665Z,98157.38
2022-11-03T06:50:02.851Z,98153.91
2022-11-03T06:52:36.782Z,98154.75
2022-11-03T06:55:24.606Z,98163.41
2022-11-03T06:57:56.935Z,98163.41
2022-11-03T07:00:40.326Z,98159.09
2022-11-03T07:03:16.250Z,98159.09
2022-11-03T07:05:46.470Z,98158.19
2022-11-03T07:08:21.723Z,98157.34
2022-11-03T07:10:51.696Z,98151.28
2022-11-03T07:13:25.732Z,98154.72
2022-11-03T07:15:56.921Z,98151.31
2022-11-03T07:18:30.110Z,98143.50
2022-11-03T07:21:00.741Z,98143.50
2022-11-03T07:23:32.315Z,98133.09
2022-11-03T07:26:02.615Z,98132.19
2022-11-03T07:28:35.806Z,98126.16
2022-11-03T07:31:16.393Z,98127.84
2022-11-03T07:33:48.111Z,98126.06
2022-11-03T07:36:19.909Z,98121.72
2022-11-03T07:38:53.258Z,98106.13
2022-11-03T07:41:28.111Z,98110.44
2022-11-03T07:44:02.196Z,98107.84
2022-11-03T07:46:31.240Z,98103.44
2022-11-03T07:49:03.699Z,98102.38
2022-11-03T07:51:34.167Z,98086.81
2022-11-03T07:54:07.487Z,98075.50
2022-11-03T07:56:43.504Z,98079.88
2022-11-03T07:59:16.880Z,98070.09
2022-11-03T08:01:49.060Z,98070.78
2022-11-03T08:04:22.248Z,98061.75
2022-11-03T08:06:53.260Z,98058.03
2022-11-03T08:09:24.747Z,98054.34
2022-11-03T08:11:53.759Z,98042.78
2022-11-03T08:14:22.876Z,98032.16
2022-11-03T08:16:55.946Z,98035.41
2022-11-03T08:19:26.219Z,98027.69
2022-11-03T08:21:56.448Z,98030.06
2022-11-03T08:25:15.005Z,98020.75
2022-11-03T08:27:43.836Z,98017.72
2022-11-03T08:30:32.452Z,98009.59
2022-11-03T08:43:33.540Z,97985.13
2022-11-03T08:46:18.872Z,97984.19
2022-11-03T08:52:35.360Z,97971.56
2022-11-03T08:58:41.543Z,97956.78
2022-11-03T09:01:43.808Z,97955.38
2022-11-03T09:14:39.728Z,97945.34
2022-11-03T09:17:09.971Z,97952.75
2022-11-03T09:29:02.520Z,97930.66
2022-11-03T09:37:45.935Z,97924.44
2022-11-03T09:40:16.417Z,97920.91
2022-11-03T09:42:45.384Z,97926.50
2022-11-03T09:45:13.809Z,97927.28
2022-11-03T09:47:45.038Z,97914.28
2022-11-03T09:50:17.419Z,97907.41
2022-11-03T09:52:51.566Z,97912.88
2022-11-03T09:55:25.342Z,97899.75
2022-11-03T09:57:54.059Z,97899.81
2022-11-03T10:00:24.802Z,97895.28
2022-11-03T10:02:53.327Z,97892.91
2022-11-03T10:05:25.345Z,97890.16
2022-11-03T10:07:59.413Z,97878.56
2022-11-03T10:16:54.206Z,97870.56
2022-11-03T10:19:22.734Z,97858.63
2022-11-03T10:21:52.523Z,97854.63
2022-11-03T10:24:23.358Z,97835.97
2022-11-03T10:26:54.796Z,97834.09
2022-11-03T10:29:24.713Z,97828.47
2022-11-03T10:31:54.521Z,97825.94
2022-11-03T10:34:29.644Z,97821.41
2022-11-03T10:40:47.726Z,97801.50
2022-11-03T10:43:17.017Z,97806.69
2022-11-03T10:45:45.383Z,97792.28
2022-11-03T10:48:13.740Z,97791.84
2022-11-03T10:50:43.801Z,97781.63
2022-11-03T10:53:17.984Z,97782.81
2022-11-03T11:21:48.627Z,97736.06
2022-11-03T11:25:01.729Z,97732.59
2022-11-03T11:28:00.399Z,97720.38
2022-11-03T11:33:36.511Z,97705.13
2022-11-03T11:39:14.836Z,97698.19
2022-11-03T11:45:03.593Z,97703.75
2022-11-03T11:50:39.717Z,97675.31
2022-11-03T11:53:31.500Z,97677.19
2022-11-03T11:56:01.270Z,97670.91
2022-11-03T11:58:37.509Z,97669.78
2022-11-03T12:01:22.168Z,97660.06
2022-11-03T12:03:51.229Z,97654.66
2022-11-03T12:06:33.909Z,97646.97
2022-11-03T12:09:08.053Z,97642.78
2022-11-03T12:11:45.921Z,97641.56
2022-11-03T12:14:34.991Z,97631.38
2022-11-03T12:17:35.714Z,97626.53
2022-11-03T12:20:44.922Z,97618.19
2022-11-03T12:23:13.238Z,97613.53
2022-11-03T12:25:41.801Z,97612.75
2022-11-03T12:28:10.345Z,97602.69
2022-11-03T12:30:40.189Z,97598.19
2022-11-03T12:33:10.842Z,97582.59
2022-11-03T12:35:40.688Z,97595.34
2022-11-03T12:38:08.979Z,97589.66
2022-11-03T12:40:37.414Z,97586.69
2022-11-03T12:43:06.085Z,97586.91
2022-11-03T12:45:34.582Z,97581.34
2022-11-03T12:48:02.928Z,97580.88
2022-11-03T12:50:31.184Z,97576.75
2022-11-03T12:53:00.943Z,97571.78
2022-11-03T12:55:29.258Z,97566.53
2022-11-03T12:57:57.602Z,97561.75
2022-11-03T13:00:25.888Z,97553.38
2022-11-03T13:02:54.643Z,97545.44
2022-11-03T13:05:23.222Z,97528.78
2022-11-03T13:07:51.524Z,97522.56
2022-11-03T13:10:21.333Z,97524.50
2022-11-03T13:12:49.815Z,97521.56
2022-11-03T13:15:18.464Z,97521.75
2022-11-03T13:20:35.951Z,97514.06
2022-11-03T13:23:05.375Z,97508.44
2022-11-03T13:25:35.540Z,97511.91
2022-11-03T13:28:04.303Z,97505.13
2022-11-03T13:30:33.931Z,97505.91
2022-11-03T13:33:02.292Z,97508.53
2022-11-03T13:35:30.689Z,97501.94
2022-11-03T13:38:05.109Z,97501.69
2022-11-03T13:40:55.473Z,97497.59
2022-11-03T13:43:23.297Z,97496.38
2022-11-03T13:45:53.050Z,97492.38
2022-11-03T13:49:19.970Z,97492.75
2022-11-03T13:51:12.329Z,97484.31
2022-11-03T13:56:32.080Z,97485.72
2022-11-03T15:01:27.256Z,97441.94
2022-11-03T15:03:57.845Z,97463.75
2022-11-03T15:06:27.842Z,97454.50
2022-11-03T15:08:57.002Z,97442.59
2022-11-03T15:11:26.278Z,97440.06
2022-11-03T15:13:55.933Z,97431.34
2022-11-03T15:16:25.355Z,97432.66
2022-11-03T15:18:54.793Z,97428.28
2022-11-03T15:21:25.763Z,97433.09
2022-11-03T15:28:22.444Z,97426.22
2022-11-03T15:30:51.598Z,97422.81
2022-11-03T15:33:21.294Z,97426.56
2022-11-03T15:35:50.719Z,97425.72
2022-11-03T15:38:21.318Z,97417.72
2022-11-03T15:40:50.684Z,97412.94
2022-11-03T15:43:20.513Z,97417.19
2022-11-03T15:45:50.581Z,97405.84
2022-11-03T15:48:20.660Z,97405.28
2022-11-03T15:50:54.121Z,97394.81
2022-11-03T15:53:25.436Z,97390.63
2022-11-03T15:55:54.773Z,97389.06
2022-11-03T15:58:24.999Z,97389.13
2022-11-03T16:00:55.514Z,97394.66
2022-11-03T16:03:26.300Z,97391.09
2022-11-03T16:05:56.878Z,97393.09
2022-11-03T16:08:27.932Z,97388.53
2022-11-03T16:10:58.937Z,97381.88
2022-11-03T16:13:28.485Z,97379.91
2022-11-03T16:16:02.996Z,97376.38
2022-11-03T16:18:33.791Z,97380.53
2022-11-03T16:21:04.190Z,97379.72
2022-11-03T16:23:35.057Z,97381.66
2022-11-03T16:30:32.185Z,97375.75
2022-11-03T16:33:02.958Z,97373.16
2022-11-03T16:35:33.021Z,97370.75
2022-11-03T16:38:03.781Z,97373.16
2022-11-03T16:40:39.669Z,97364.75
2022-11-03T16:43:21.956Z,97360.38
2022-11-03T16:45:54.034Z,97355.19
2022-11-03T16:48:36.847Z,97349.91
2022-11-03T16:51:10.279Z,97336.84
2022-11-03T16:57:20.881Z,97337.56
2022-11-03T17:04:10.468Z,97312.13
2022-11-03T17:06:54.476Z,97320.38
2022-11-03T17:13:38.468Z,97319.44
2022-11-03T17:16:36.025Z,97316.94
2022-11-03T17:27:01.186Z,97318.75
2022-11-03T17:29:58.848Z,97320.56
2022-11-03T17:36:38.520Z,97312.00
2022-11-03T17:39:35.654Z,97322.50
2022-11-03T17:42:17.472Z,97321.84
2022-11-03T17:44:50.490Z,97316.69
2022-11-03T17:47:23.369Z,97308.06
2022-11-03T17:49:54.915Z,97312.47
2022-11-03T17:52:29.596Z,97295.19
2022-11-03T17:55:01.778Z,97289.22
2022-11-03T17:57:31.990Z,97283.59
2022-11-03T18:00:05.702Z,97272.09
2022-11-03T18:02:41.079Z,97277.09
2022-11-03T18:05:27.231Z,97276.16
2022-11-03T18:07:57.831Z,97290.56
2022-11-03T18:10:31.198Z,97289.97
2022-11-03T18:13:18.984Z,97288.66
2022-11-03T18:15:52.996Z,97287.03
2022-11-03T18:18:29.517Z,97282.78
2022-11-03T18:20:59.897Z,97275.00
2022-11-03T18:23:33.395Z,97267.97
2022-11-03T18:26:05.684Z,97260.03
2022-11-03T18:28:35.412Z,97254.41
2022-11-03T18:31:30.063Z,97264.22
2022-11-03T18:34:02.138Z,97257.28
2022-11-03T18:36:34.573Z,97256.31
2022-11-03T18:39:20.083Z,97258.06
2022-11-03T18:41:55.455Z,97251.38
2022-11-03T18:44:28.855Z,97258.31
2022-11-03T18:47:01.108Z,97248.03
2022-11-03T18:49:34.892Z,97249.81
2022-11-03T18:52:08.912Z,97251.53
2022-11-03T18:54:39.107Z,97241.94
2022-11-03T18:57:10.673Z,97243.66
2022-11-03T18:59:42.989Z,97247.16
2022-11-03T19:02:18.778Z,97235.78
2022-11-03T19:04:51.035Z,97222.75
2022-11-03T19:07:26.144Z,97222.94
2022-11-03T19:09:56.042Z,97228.06
2022-11-03T19:12:26.521Z,97217.63
2022-11-03T19:14:57.031Z,97207.09
2022-11-03T19:17:32.439Z,97203.75
2022-11-03T19:20:04.454Z,97193.66
2022-11-03T19:22:34.752Z,97188.44
2022-11-03T19:25:06.619Z,97192.78
2022-11-03T19:27:41.180Z,97189.44
2022-11-03T19:30:15.562Z,97182.66
2022-11-03T19:32:52.293Z,97172.31
2022-11-03T19:35:24.774Z,97170.59
2022-11-03T19:38:03.806Z,97153.44
2022-11-03T19:40:37.266Z,97161.94
2022-11-03T19:43:11.055Z,97153.28
2022-11-03T19:45:42.011Z,97148.09
2022-11-03T19:48:24.069Z,97150.09
2022-11-03T19:50:55.507Z,97149.28
2022-11-03T19:53:28.972Z,97142.47
2022-11-03T19:56:03.109Z,97136.34
2022-11-03T19:58:33.821Z,97131.38
2022-11-03T20:01:08.454Z,97128.66
2022-11-03T20:03:40.651Z,97127.69
2022-11-03T20:06:16.648Z,97118.38
2022-11-03T20:08:51.880Z,97109.94
2022-11-03T20:11:22.865Z,97110.75
2022-11-03T20:13:56.712Z,97109.75
2022-11-03T20:16:28.406Z,97121.59
2022-11-03T20:19:01.367Z,97127.69
2022-11-03T20:21:34.491Z,97118.88
2022-11-03T20:24:11.024Z,97105.97
2022-11-03T20:26:41.332Z,97113.66
2022-11-03T20:29:14.567Z,97119.06
2022-11-03T20:31:48.759Z,97116.44
2022-11-03T20:36:54.740Z,97101.59
2022-11-03T20:39:57.329Z,97105.06
2022-11-03T20:42:30.117Z,97101.94
2022-11-03T20:45:01.057Z,97096.63
2022-11-03T20:47:33.229Z,97089.66
2022-11-03T20:50:07.502Z,97078.03
2022-11-03T20:52:38.324Z,97077.44
2022-11-03T20:55:17.463Z,97077.66
2022-11-03T20:57:47.837Z,97057.03
2022-11-03T21:00:19.859Z,97056.16
2022-11-03T21:02:49.829Z,97067.41
2022-11-03T21:05:25.846Z,97053.88
2022-11-03T21:07:56.107Z,97059.94
2022-11-03T21:10:25.538Z,97055.19
2022-11-03T21:12:56.126Z,97062.75
2022-11-03T21:16:03.830Z,97061.78
2022-11-03T21:18:52.174Z,97059.75
2022-11-03T21:21:24.153Z,97062.06
2022-11-03T21:23:55.253Z,97058.75
2022-11-03T21:26:24.490Z,97053.72
2022-11-03T21:28:56.305Z,97046.84
2022-11-03T21:31:26.512Z,97041.22
2022-11-03T21:33:57.026Z,97046.38
2022-11-03T21:36:39.260Z,97032.78
2022-11-03T21:39:15.017Z,97032.13
2022-11-03T21:45:26.734Z,97031.38
2022-11-03T21:48:34.186Z,97019.34
2022-11-03T21:51:20.346Z,97017.63
2022-11-03T21:54:08.705Z,97015.00
2022-11-03T21:56:56.515Z,97022.00
2022-11-03T21:59:44.341Z,97013.34
2022-11-03T22:02:33.865Z,97015.84
2022-11-03T22:05:26.109Z,97005.28
2022-11-03T22:16:28.523Z,96983.72
2022-11-03T22:27:07.051Z,96954.69
2022-11-03T22:30:20.450Z,96954.47
2022-11-03T22:33:15.232Z,96956.22
2022-11-03T22:36:17.387Z,96953.72
2022-11-03T22:40:03.609Z,96946.97
2022-11-03T22:43:07.845Z,96952.09
2022-11-03T22:49:12.888Z,96953.28
2022-11-03T22:55:56.913Z,96938.59
2022-11-03T23:22:10.201Z,96909.41
2022-11-03T23:25:47.298Z,96900.63
2022-11-03T23:29:44.166Z,96887.09
2022-11-03T23:37:23.018Z,96876.75
2022-11-03T23:44:31.455Z,96874.44
2022-11-03T23:47:34.941Z,96869.94
2022-11-03T23:50:47.049Z,96865.56
2022-11-03T23:54:30.892Z,96856.03
